New Orleans, Louisiana
Traffic Map
Current Weather Conditions
New Orleans, Louisiana
Broken Clouds Light Rain
Broken Clouds
69°
Feels Like: 69°
Wind Chill: 69° Ceiling: 11000
Heat Index: 69° Visibility: 6mi
Dew Point: 63° Wind: 31mph
Humidity: 81% Direction: 100° (E)
Pressure: 29.76in Gusts: 40mph
Raw Report DataKNEW 271817Z 10027G35KT 6SM -RA FEW070 SCT085 BKN110 21/17 A2976 RMK AO2 PK WND 08036/1801 TSE1759 PRESFR P0008 T02060172
Traffic Incident Summary
Active as of:
Severity:
Category:
InformationThere was an issue retrieving the traffic information for this location. Please try a different location or try again shortly.
Advertisements
Track Severe Weather on mobile